Time;durP1;ratioP1;P1;durP2;ratioP2;P2;SDS_P1;SDS_P2;PMS_P1;PMS_P2;Temp;Humidity;BMP_temperature;BMP_pressure;BME280_temperature;BME280_humidity;BME280_pressure;Samples;Min_cycle;Max_cycle;Signal;HPM_P1;HPM_P2
2021/12/06 00:00:45;;;;;;;153.15;91.22;;;;;;;6.91;63.47;93997.06;4885762;29;20406;-82
2021/12/06 00:03:13;;;;;;;147.02;87.82;;;;;;;6.90;63.49;93999.88;4901008;29;20410;-83
2021/12/06 00:05:39;;;;;;;120.05;70.28;;;;;;;6.92;64.75;93992.66;4870469;29;20422;-82
2021/12/06 00:08:04;;;;;;;128.27;77.03;;;;;;;6.93;64.78;93999.41;4886836;29;20535;-82
2021/12/06 00:10:30;;;;;;;120.00;70.43;;;;;;;6.82;64.88;93995.03;4887159;29;20846;-82
2021/12/06 00:12:55;;;;;;;96.68;58.45;;;;;;;6.85;64.99;93979.88;4886902;29;20470;-83
2021/12/06 00:15:21;;;;;;;77.50;46.70;;;;;;;6.87;66.46;93995.94;4866650;29;20429;-78
2021/12/06 00:17:46;;;;;;;74.33;43.97;;;;;;;7.03;66.24;93986.69;4899229;29;20418;-78
2021/12/06 00:20:12;;;;;;;65.82;39.28;;;;;;;7.05;66.40;93997.59;4898173;29;20425;-78
2021/12/06 00:22:38;;;;;;;69.72;41.88;;;;;;;7.05;66.03;93987.25;4897317;29;20791;-78
2021/12/06 00:25:04;;;;;;;74.80;45.70;;;;;;;7.01;66.21;93995.69;4879349;29;20485;-78
2021/12/06 00:27:30;;;;;;;92.37;58.20;;;;;;;7.05;64.79;94013.09;4897266;29;20425;-78
2021/12/06 00:29:57;;;;;;;101.20;61.77;;;;;;;7.08;64.52;94017.81;4880963;29;20426;-78
2021/12/06 00:32:22;;;;;;;98.22;60.28;;;;;;;6.98;64.89;94033.09;4897810;29;20421;-78
2021/12/06 00:34:48;;;;;;;89.43;55.30;;;;;;;6.98;65.30;94046.03;4882192;29;20417;-79
2021/12/06 00:39:47;;;;;;;102.55;58.78;;;;;;;7.17;64.60;94026.00;4907539;29;20515;-78
2021/12/06 00:42:12;;;;;;;116.07;69.68;;;;;;;7.19;64.05;94021.38;4902126;29;20437;-78
2021/12/06 00:44:38;;;;;;;108.38;63.17;;;;;;;7.26;64.21;94009.09;4920108;29;20422;-79
2021/12/06 00:47:04;;;;;;;120.53;72.30;;;;;;;7.24;63.67;94026.63;4916941;29;20447;-78
2021/12/06 00:49:29;;;;;;;124.35;69.97;;;;;;;7.32;63.31;94018.53;4906015;29;20418;-79
2021/12/06 00:51:55;;;;;;;116.70;66.83;;;;;;;7.29;63.74;94041.44;4908367;29;20437;-79
2021/12/06 00:54:20;;;;;;;148.70;83.83;;;;;;;7.28;63.44;94035.50;4898117;29;20455;-79
2021/12/06 00:56:45;;;;;;;138.10;82.80;;;;;;;7.27;63.54;94031.34;4908241;29;20398;-79
2021/12/06 00:59:11;;;;;;;91.70;54.90;;;;;;;7.30;63.83;94007.59;5219539;23;20452;-78
2021/12/06 01:01:36;;;;;;;87.70;51.40;;;;;;;7.35;64.08;94012.09;4927645;29;20408;-78
2021/12/06 01:04:02;;;;;;;89.65;53.40;;;;;;;7.41;63.63;94006.78;4913776;29;20409;-78
2021/12/06 01:06:28;;;;;;;88.55;54.70;;;;;;;7.47;63.14;94005.06;4901641;29;20427;-79
2021/12/06 01:08:53;;;;;;;99.32;57.20;;;;;;;7.25;62.79;94022.25;4896055;29;20437;-78
2021/12/06 01:11:19;;;;;;;88.72;52.67;;;;;;;7.38;62.21;94014.22;4899882;29;20566;-78
2021/12/06 01:13:44;;;;;;;82.70;48.17;;;;;;;7.29;62.77;94033.69;4909097;29;20444;-80
2021/12/06 01:16:10;;;;;;;84.43;49.10;;;;;;;7.31;62.96;94018.72;4903291;29;20418;-77
2021/12/06 01:18:36;;;;;;;97.13;52.20;;;;;;;7.21;63.32;94009.78;4904089;29;20412;-77
2021/12/06 01:21:11;;;;;;;96.45;57.13;;;;;;;7.23;63.94;94014.72;4889735;29;20436;-79
2021/12/06 01:23:48;;;;;;;89.85;54.35;;;;;;;7.33;63.01;94007.16;4900434;29;20420;-79
2021/12/06 01:29:07;;;;;;;86.05;48.97;;;;;;;7.31;62.55;93998.03;4910562;29;20410;-79
2021/12/06 01:39:21;;;;;;;72.97;43.28;;;;;;;7.21;63.73;93996.84;4889186;29;20863;-80
2021/12/06 01:41:58;;;;;;;76.07;43.55;;;;;;;7.22;63.61;93992.47;4881134;29;20422;-79
2021/12/06 01:44:29;;;;;;;100.63;56.23;;;;;;;7.33;62.75;93983.88;4888200;29;20470;-79
2021/12/06 01:47:00;;;;;;;106.00;58.43;;;;;;;7.32;63.27;93987.50;4886594;29;20410;-78
2021/12/06 01:49:28;;;;;;;129.50;69.72;;;;;;;7.09;63.43;93978.00;4873778;29;20408;-79
2021/12/06 01:51:54;;;;;;;117.80;66.55;;;;;;;7.16;63.40;93978.66;4886433;29;20474;-79
2021/12/06 01:54:20;;;;;;;114.57;64.63;;;;;;;7.20;63.56;93968.66;4886511;29;20415;-79
2021/12/06 01:56:46;;;;;;;103.60;61.88;;;;;;;7.16;63.85;93970.91;4880400;29;20507;-79
2021/12/06 01:59:12;;;;;;;105.68;61.63;;;;;;;7.17;63.78;93974.28;4870839;29;20498;-79
2021/12/06 02:01:38;;;;;;;119.63;67.60;;;;;;;7.10;63.57;93963.28;4887472;29;20424;-79
2021/12/06 02:04:03;;;;;;;72.13;44.10;;;;;;;7.00;64.78;93957.94;4887335;29;20422;-79
2021/12/06 02:06:29;;;;;;;69.13;35.45;;;;;;;7.18;65.42;93953.38;4894916;29;20966;-79
2021/12/06 02:08:55;;;;;;;72.75;43.33;;;;;;;7.26;64.02;93966.94;4879463;29;20426;-79
2021/12/06 02:11:24;;;;;;;77.55;44.22;;;;;;;7.16;63.56;93958.00;4872428;29;20516;-79
2021/12/06 02:13:58;;;;;;;84.15;42.80;;;;;;;7.15;62.63;93964.16;4887672;29;20972;-79
2021/12/06 02:16:33;;;;;;;85.68;46.60;;;;;;;7.20;62.54;93958.31;4871970;29;20499;-79
2021/12/06 02:19:03;;;;;;;66.32;39.80;;;;;;;7.12;63.45;93972.38;4875276;29;20416;-79
2021/12/06 02:21:32;;;;;;;64.43;38.75;;;;;;;7.20;62.95;93973.81;4893027;29;20406;-79
2021/12/06 02:23:59;;;;;;;64.13;37.70;;;;;;;7.11;63.99;93968.22;4860473;29;20439;-79
2021/12/06 02:26:24;;;;;;;61.65;38.58;;;;;;;7.12;64.97;93969.00;4892903;29;20425;-79
2021/12/06 02:28:50;;;;;;;79.20;45.80;;;;;;;7.00;64.77;93969.06;4874519;29;20926;-79
2021/12/06 02:31:17;;;;;;;86.03;51.47;;;;;;;7.10;64.59;93974.41;4887523;29;20458;-79
2021/12/06 02:33:45;;;;;;;87.30;49.63;;;;;;;7.05;64.45;93961.38;4894984;29;20422;-79
2021/12/06 02:36:10;;;;;;;80.63;48.38;;;;;;;7.03;64.50;93966.00;4887759;29;20427;-78
2021/12/06 02:38:36;;;;;;;80.70;47.43;;;;;;;7.09;64.56;93967.66;4886258;29;20426;-79
2021/12/06 02:41:08;;;;;;;81.65;47.97;;;;;;;7.09;63.93;93964.28;4886454;29;20986;-78
2021/12/06 02:43:34;;;;;;;79.30;46.85;;;;;;;7.04;64.61;93954.66;4886287;29;20748;-78
2021/12/06 02:46:00;;;;;;;77.03;44.80;;;;;;;7.12;64.48;93946.53;4886545;29;20513;-78
2021/12/06 02:48:25;;;;;;;76.75;46.58;;;;;;;6.99;64.23;93956.34;4887825;29;20498;-79
2021/12/06 02:50:52;;;;;;;84.33;46.97;;;;;;;7.09;64.04;93952.16;4869765;29;20423;-78
2021/12/06 02:53:19;;;;;;;79.22;48.08;;;;;;;7.09;63.78;93952.16;4885215;29;20584;-78
2021/12/06 02:55:51;;;;;;;80.20;48.57;;;;;;;7.18;63.64;93965.50;4871641;29;20898;-79
2021/12/06 03:01:32;;;;;;;73.95;46.33;;;;;;;7.25;63.65;93955.00;4888207;29;20455;-79
2021/12/06 03:04:04;;;;;;;111.10;67.53;;;;;;;7.18;63.35;93960.34;4886174;29;20429;-79
2021/12/06 03:06:30;;;;;;;106.70;63.67;;;;;;;7.17;64.17;93948.44;4885658;29;20838;-79
2021/12/06 03:09:07;;;;;;;86.15;52.05;;;;;;;7.23;64.72;93932.75;4889062;29;20415;-79
2021/12/06 03:11:41;;;;;;;41.78;25.75;;;;;;;7.45;66.52;93947.59;4872623;29;20412;-79
2021/12/06 03:14:08;;;;;;;46.40;30.58;;;;;;;7.59;66.47;93956.63;4887262;29;20423;-79
2021/12/06 03:16:34;;;;;;;90.60;52.60;;;;;;;7.68;65.07;93944.13;4871790;29;20442;-79
2021/12/06 03:19:04;;;;;;;117.35;73.65;;;;;;;7.65;63.30;93955.72;4886218;29;20476;-79
2021/12/06 03:21:30;;;;;;;101.63;63.28;;;;;;;7.60;62.65;93947.84;4888723;29;20418;-79
2021/12/06 03:23:56;;;;;;;87.30;56.83;;;;;;;7.60;62.88;93947.06;4875450;29;20933;-79
2021/12/06 03:26:21;;;;;;;97.78;59.75;;;;;;;7.59;62.66;93950.69;4892353;29;20423;-79
2021/12/06 03:28:50;;;;;;;119.70;74.17;;;;;;;7.67;62.91;93945.13;4899383;29;20414;-79
2021/12/06 03:31:39;;;;;;;128.83;84.80;;;;;;;7.66;63.64;93946.94;4901292;29;20414;-79
2021/12/06 03:34:14;;;;;;;125.13;78.70;;;;;;;7.63;63.58;93944.78;4896171;29;20925;-79
2021/12/06 03:36:40;;;;;;;119.38;78.35;;;;;;;7.64;63.71;93943.78;4891668;29;20482;-79
2021/12/06 03:39:10;;;;;;;143.57;72.97;;;;;;;7.61;64.17;93930.53;4890236;29;20486;-79
2021/12/06 03:41:36;;;;;;;137.50;72.93;;;;;;;7.71;63.78;93935.88;4890123;29;20413;-78
2021/12/06 03:44:02;;;;;;;87.30;48.87;;;;;;;7.67;63.57;93927.81;4890486;29;20407;-79
2021/12/06 03:46:29;;;;;;;80.40;47.47;;;;;;;7.77;64.42;93938.28;4875021;29;20531;-79
2021/12/06 03:48:54;;;;;;;77.70;44.57;;;;;;;7.82;64.01;93959.09;4889616;29;20685;-79
2021/12/06 03:51:19;;;;;;;80.37;49.57;;;;;;;7.95;62.54;93946.84;4889977;29;20420;-79
2021/12/06 03:53:45;;;;;;;74.78;45.85;;;;;;;7.92;62.83;93948.09;4889881;29;20467;-79
2021/12/06 03:56:12;;;;;;;65.73;41.50;;;;;;;7.83;62.77;93932.19;4890205;29;20479;-79
2021/12/06 03:58:37;;;;;;;60.30;37.55;;;;;;;7.88;63.98;93935.88;4891410;29;20414;-79
2021/12/06 04:01:03;;;;;;;65.30;40.10;;;;;;;7.86;63.91;93937.91;4891642;29;20422;-79
2021/12/06 04:03:29;;;;;;;77.50;45.73;;;;;;;7.97;62.82;93937.84;4969748;23;20446;-79
2021/12/06 04:05:55;;;;;;;70.93;45.77;;;;;;;7.96;62.54;93936.25;4936672;29;20618;-78
2021/12/06 04:08:20;;;;;;;69.93;44.03;;;;;;;7.98;62.16;93934.22;4968968;23;20448;-79
2021/12/06 04:10:46;;;;;;;64.73;41.60;;;;;;;7.85;63.14;93937.13;4905549;29;20421;-79
2021/12/06 04:13:11;;;;;;;75.67;46.47;;;;;;;7.83;62.77;93927.03;4900464;29;20535;-79
2021/12/06 04:15:40;;;;;;;66.60;42.55;;;;;;;7.82;62.79;93943.56;4890282;29;20427;-78
2021/12/06 04:18:05;;;;;;;55.67;35.40;;;;;;;7.77;64.33;93938.28;4890011;29;20426;-79
2021/12/06 04:20:31;;;;;;;90.53;53.77;;;;;;;7.79;63.35;93944.03;4888782;29;20421;-79
2021/12/06 04:22:56;;;;;;;124.63;72.68;;;;;;;7.74;62.97;93948.34;4897159;29;20422;-79
2021/12/06 04:25:22;;;;;;;138.17;80.20;;;;;;;7.71;63.10;93939.25;4888652;29;20414;-79
2021/12/06 04:27:53;;;;;;;189.60;125.17;;;;;;;7.80;63.18;93940.41;4890144;29;20425;-79
2021/12/06 04:30:18;;;;;;;178.25;112.75;;;;;;;7.69;63.34;93936.13;4873426;29;20418;-78
2021/12/06 04:32:47;;;;;;;130.33;82.53;;;;;;;7.72;63.92;93945.22;4897445;29;20567;-81
2021/12/06 04:35:12;;;;;;;128.57;86.25;;;;;;;7.74;63.72;93943.94;4873918;29;20419;-82
2021/12/06 04:37:38;;;;;;;94.00;59.37;;;;;;;7.73;63.59;93941.59;4905333;29;20434;-81
2021/12/06 04:40:04;;;;;;;100.63;64.70;;;;;;;7.69;64.49;93941.28;4888119;29;20423;-81
2021/12/06 04:42:39;;;;;;;84.55;54.30;;;;;;;7.77;64.98;93933.13;4934145;23;20426;-80
2021/12/06 04:45:05;;;;;;;127.50;80.03;;;;;;;7.85;64.30;93944.13;4909608;29;20418;-81
2021/12/06 04:47:30;;;;;;;132.25;86.22;;;;;;;7.88;63.79;93943.63;4905044;29;20471;-81
2021/12/06 04:49:56;;;;;;;113.15;73.72;;;;;;;7.85;64.29;93944.13;4890682;29;20421;-80
2021/12/06 04:52:21;;;;;;;108.90;67.87;;;;;;;8.01;64.19;93935.56;4889861;29;20440;-79
2021/12/06 04:54:51;;;;;;;63.87;42.90;;;;;;;8.02;64.92;93934.53;4874316;29;20431;-82
2021/12/06 04:57:35;;;;;;;102.80;68.65;;;;;;;8.01;64.80;93928.56;4893030;29;20504;-77
2021/12/06 05:02:32;;;;;;;144.00;92.10;;;;;;;8.05;63.89;93944.41;4935307;23;20430;-83
2021/12/06 05:04:59;;;;;;;134.25;84.32;;;;;;;8.02;64.02;93934.53;4896296;29;20502;-83
2021/12/06 05:07:38;;;;;;;135.02;84.28;;;;;;;8.03;63.43;93946.47;4899550;29;20418;-84
2021/12/06 05:10:04;;;;;;;126.20;78.55;;;;;;;8.01;63.43;93930.38;4913883;29;20452;-83
2021/12/06 05:12:30;;;;;;;122.28;77.32;;;;;;;8.05;63.64;93932.25;4898474;29;20435;-80
2021/12/06 05:14:56;;;;;;;121.78;76.40;;;;;;;8.00;64.00;93926.22;4906960;29;20420;-79
2021/12/06 05:17:21;;;;;;;102.82;66.78;;;;;;;8.02;63.98;93950.84;4898348;29;20418;-84
2021/12/06 05:19:47;;;;;;;117.93;77.43;;;;;;;8.03;63.98;93962.78;4894240;29;20426;-82
2021/12/06 05:22:12;;;;;;;94.53;60.63;;;;;;;8.00;64.07;93958.06;4865994;29;20412;-84
2021/12/06 05:24:38;;;;;;;82.97;52.53;;;;;;;8.06;63.91;93964.09;4896339;29;20418;-85
2021/12/06 05:27:05;;;;;;;97.35;62.90;;;;;;;8.06;63.81;93959.72;4898047;29;20418;-85
2021/12/06 05:29:30;;;;;;;108.82;68.18;;;;;;;7.97;64.08;93963.72;4893878;29;20776;-85
2021/12/06 05:31:58;;;;;;;88.32;56.03;;;;;;;8.01;64.08;93966.63;4894408;29;20426;-84
2021/12/06 05:34:56;;;;;;;78.47;50.70;;;;;;;8.07;64.43;93947.53;4891030;29;20415;-84
2021/12/06 05:37:22;;;;;;;59.30;36.25;;;;;;;8.04;64.63;93942.84;4896679;29;20441;-84
2021/12/06 05:39:47;;;;;;;62.27;36.33;;;;;;;7.87;65.27;93949.84;4908654;29;20923;-80
2021/12/06 05:42:13;;;;;;;51.10;34.17;;;;;;;7.88;65.29;93948.81;4894922;29;20426;-84
2021/12/06 05:44:39;;;;;;;48.73;32.07;;;;;;;7.81;65.57;93960.13;4894963;29;20432;-85
2021/12/06 05:47:04;;;;;;;54.83;34.22;;;;;;;7.94;66.05;93958.22;4915151;23;20469;-86
2021/12/06 05:49:30;;;;;;;49.30;30.67;;;;;;;7.99;65.57;93958.31;4878314;29;20423;-84
2021/12/06 05:51:56;;;;;;;57.83;36.87;;;;;;;8.14;65.05;93940.41;4914819;23;20480;-86
2021/12/06 05:54:21;;;;;;;49.67;33.63;;;;;;;8.12;65.45;93947.59;4875229;29;20420;-85
2021/12/06 05:56:48;;;;;;;50.38;31.75;;;;;;;8.09;64.94;93945.50;4878634;29;20458;-85
2021/12/06 05:59:14;;;;;;;48.83;30.73;;;;;;;8.12;65.07;93934.66;4880312;29;20427;-85
2021/12/06 06:01:39;;;;;;;45.83;29.43;;;;;;;7.99;65.44;93940.19;4858224;29;20418;-85
2021/12/06 06:04:05;;;;;;;48.58;30.73;;;;;;;7.80;66.73;93958.53;4878359;29;20446;-85
2021/12/06 06:06:32;;;;;;;65.53;38.57;;;;;;;7.90;66.27;93950.16;4875238;29;20467;-86
2021/12/06 06:08:57;;;;;;;42.03;28.10;;;;;;;7.75;67.20;93961.03;4879438;29;20424;-85
2021/12/06 06:11:23;;;;;;;46.43;29.53;;;;;;;7.92;67.12;93970.63;4883041;29;20885;-86
2021/12/06 06:13:48;;;;;;;45.53;30.27;;;;;;;8.04;66.39;93963.56;4882395;29;20440;-85
2021/12/06 06:16:18;;;;;;;43.92;27.73;;;;;;;8.16;66.37;93981.59;4892076;24;20487;-85
2021/12/06 06:21:20;;;;;;;36.58;25.20;;;;;;;8.45;65.68;93958.97;5025842;23;20430;-83
2021/12/06 06:23:48;;;;;;;35.10;24.17;;;;;;;8.49;65.51;93960.88;4947495;29;20410;-82
2021/12/06 06:26:13;;;;;;;33.95;24.42;;;;;;;8.50;65.27;93966.81;4929783;29;20418;-84
2021/12/06 06:28:39;;;;;;;35.93;24.43;;;;;;;8.80;64.70;93959.44;4914836;29;20421;-84
2021/12/06 06:31:04;;;;;;;37.37;24.87;;;;;;;9.21;63.24;93944.31;4915999;29;20496;-84
2021/12/06 06:33:30;;;;;;;36.10;23.80;;;;;;;9.44;62.77;93966.63;4914280;29;20422;-84
2021/12/06 06:35:55;;;;;;;36.22;24.30;;;;;;;9.51;62.14;93983.56;4928495;29;20945;-86
2021/12/06 06:38:22;;;;;;;36.87;24.90;;;;;;;9.32;62.38;93995.28;4944759;29;20406;-87
2021/12/06 06:40:48;;;;;;;32.17;23.58;;;;;;;8.76;64.22;93981.66;4902596;23;20442;-85
2021/12/06 06:43:13;;;;;;;32.60;23.42;;;;;;;8.81;64.34;93993.94;4899874;29;20443;-85
2021/12/06 06:45:39;;;;;;;31.53;22.80;;;;;;;8.81;64.65;93971.38;4887298;29;20430;-86
2021/12/06 06:48:05;;;;;;;31.60;21.10;;;;;;;8.93;64.65;93982.38;4878625;23;20451;-79
2021/12/06 06:50:30;;;;;;;34.00;21.92;;;;;;;9.11;64.16;93983.09;4881270;29;20434;-80
2021/12/06 06:52:56;;;;;;;30.07;20.90;;;;;;;9.21;63.74;93991.78;4890978;29;20448;-79
2021/12/06 06:55:21;;;;;;;27.20;20.27;;;;;;;9.46;63.69;94006.09;4872512;29;20407;-79
2021/12/06 06:57:47;;;;;;;28.23;20.25;;;;;;;9.65;63.24;93998.75;4850732;29;20420;-79
2021/12/06 07:00:15;;;;;;;29.30;19.95;;;;;;;9.58;62.41;93999.69;4887031;29;20435;-79
2021/12/06 07:02:40;;;;;;;30.80;20.80;;;;;;;9.46;62.58;94004.28;4847061;29;20415;-79
2021/12/06 07:05:06;;;;;;;27.63;19.17;;;;;;;9.39;62.92;94000.28;4847830;29;20960;-79
2021/12/06 07:07:32;;;;;;;26.70;18.13;;;;;;;9.20;63.47;93984.25;4869780;29;20416;-79
2021/12/06 07:09:57;;;;;;;25.40;17.38;;;;;;;9.32;63.85;93979.72;4848489;29;20427;-79
2021/12/06 07:12:23;;;;;;;25.20;18.23;;;;;;;9.39;63.22;93988.09;4848578;29;20437;-79
2021/12/06 07:14:49;;;;;;;23.53;17.33;;;;;;;9.66;62.89;93993.28;4847940;29;20422;-79
2021/12/06 07:17:14;;;;;;;25.83;17.58;;;;;;;9.85;62.43;93994.50;4870572;29;20431;-79
2021/12/06 07:19:40;;;;;;;24.30;16.83;;;;;;;10.21;61.21;93972.22;4863508;29;20475;-79
2021/12/06 07:22:05;;;;;;;19.50;16.03;;;;;;;10.25;60.15;93980.31;4848673;29;20443;-79
2021/12/06 07:24:31;;;;;;;22.00;17.27;;;;;;;10.11;60.71;93966.94;4878601;29;20435;-79
2021/12/06 07:26:56;;;;;;;21.13;16.63;;;;;;;10.30;60.18;93979.56;4871112;29;20459;-80
2021/12/06 07:29:22;;;;;;;21.30;15.57;;;;;;;10.07;60.05;93971.03;4848418;29;20509;-79
2021/12/06 07:31:47;;;;;;;22.07;16.00;;;;;;;10.04;60.86;93981.94;4855931;29;20431;-79
2021/12/06 07:34:13;;;;;;;21.00;15.35;;;;;;;10.06;60.47;93995.44;4870927;29;20415;-79
2021/12/06 07:36:39;;;;;;;20.67;15.25;;;;;;;10.22;60.08;93991.97;4855064;29;20444;-79
2021/12/06 07:39:05;;;;;;;21.07;16.37;;;;;;;10.05;61.20;93983.50;4862779;29;20408;-79
2021/12/06 07:41:30;;;;;;;28.83;16.73;;;;;;;10.11;60.91;93987.72;4832024;29;20923;-79
2021/12/06 07:43:57;;;;;;;22.75;16.10;;;;;;;10.22;60.70;93991.97;4862867;29;20432;-79
2021/12/06 07:46:23;;;;;;;20.60;15.23;;;;;;;10.13;60.45;94001.22;4847159;29;20428;-79
2021/12/06 07:48:52;;;;;;;20.83;14.50;;;;;;;10.16;60.31;94012.94;4863101;29;20419;-79
2021/12/06 07:51:20;;;;;;;20.90;14.18;;;;;;;10.17;60.19;94002.28;4848362;29;20423;-79
2021/12/06 07:53:46;;;;;;;17.35;13.75;;;;;;;9.94;60.77;94002.63;4847828;29;20452;-79
2021/12/06 07:56:11;;;;;;;20.95;14.30;;;;;;;9.87;61.44;93987.25;4862926;29;21018;-79
2021/12/06 07:58:37;;;;;;;19.20;13.93;;;;;;;9.62;61.76;93980.03;4846103;29;20445;-79
2021/12/06 08:01:02;;;;;;;19.30;14.23;;;;;;;9.39;62.43;93985.50;4847764;29;20419;-79
2021/12/06 08:03:30;;;;;;;19.60;13.60;;;;;;;9.22;63.44;93969.22;4855800;29;20429;-79
2021/12/06 08:05:56;;;;;;;20.58;14.15;;;;;;;9.24;63.29;93954.22;4855245;29;20795;-79
2021/12/06 08:08:29;;;;;;;17.05;13.90;;;;;;;9.41;63.64;93967.09;4863570;29;20418;-79
2021/12/06 08:11:06;;;;;;;22.83;15.43;;;;;;;9.31;64.50;93978.16;4854696;29;20404;-78
2021/12/06 08:13:33;;;;;;;21.58;14.82;;;;;;;9.29;63.84;93988.00;4835637;29;20456;-79
2021/12/06 08:16:03;;;;;;;21.52;14.98;;;;;;;9.30;64.20;93989.56;4848508;29;20417;-79
2021/12/06 08:18:28;;;;;;;22.37;14.83;;;;;;;9.41;63.64;93993.81;4858755;29;20850;-79
2021/12/06 08:20:54;;;;;;;20.77;15.23;;;;;;;9.34;63.99;93972.47;4883040;29;20424;-79
2021/12/06 08:23:20;;;;;;;22.67;14.85;;;;;;;9.17;64.53;93972.56;4866456;29;20419;-79
2021/12/06 08:25:47;;;;;;;22.07;14.53;;;;;;;9.18;64.60;93974.13;4849984;29;20924;-79
2021/12/06 08:28:13;;;;;;;21.63;13.83;;;;;;;8.90;65.02;93972.50;4835457;29;20515;-79
2021/12/06 08:30:38;;;;;;;17.77;13.73;;;;;;;8.90;66.08;93988.06;4849874;29;20957;-79
2021/12/06 08:33:04;;;;;;;22.43;14.50;;;;;;;8.92;65.63;93975.63;4872590;29;20434;-78
2021/12/06 08:35:30;;;;;;;22.63;14.20;;;;;;;9.11;65.87;93970.13;4864048;29;20455;-78
2021/12/06 08:37:57;;;;;;;20.00;14.90;;;;;;;9.40;65.04;93966.31;4873631;29;20426;-79
2021/12/06 08:40:22;;;;;;;17.23;13.10;;;;;;;9.63;64.65;93978.22;4881039;29;20416;-79
2021/12/06 08:42:48;;;;;;;20.17;13.50;;;;;;;9.87;64.12;93970.88;4864804;29;20412;-79
2021/12/06 08:45:13;;;;;;;17.35;13.02;;;;;;;10.09;62.67;93973.41;4871781;29;20469;-79
2021/12/06 08:47:39;;;;;;;19.97;12.60;;;;;;;10.21;62.25;93972.22;4865664;29;20419;-79
2021/12/06 08:50:05;;;;;;;22.13;12.80;;;;;;;10.38;61.25;93973.88;4865921;29;20451;-79
2021/12/06 08:52:31;;;;;;;18.30;13.32;;;;;;;10.65;60.52;93966.75;4849011;29;20425;-79
2021/12/06 08:54:56;;;;;;;21.08;12.93;;;;;;;10.85;60.08;93962.69;4865519;29;20424;-79
2021/12/06 08:57:22;;;;;;;17.57;12.90;;;;;;;11.02;59.62;93969.25;4857644;29;20422;-79
2021/12/06 08:59:47;;;;;;;16.57;12.30;;;;;;;10.93;58.66;93977.81;4856720;29;20507;-79
2021/12/06 09:02:13;;;;;;;16.25;12.80;;;;;;;10.90;58.45;93960.91;4882322;29;20426;-80
2021/12/06 09:04:39;;;;;;;15.98;11.82;;;;;;;10.79;58.88;93956.69;4881380;29;20515;-79
2021/12/06 09:07:12;;;;;;;16.15;11.57;;;;;;;10.64;58.40;93956.63;4867104;29;20488;-78
2021/12/06 09:09:49;;;;;;;17.42;12.52;;;;;;;10.79;58.92;93959.28;4866429;29;20400;-79
2021/12/06 09:12:20;;;;;;;14.93;11.27;;;;;;;11.00;58.75;93962.75;4856830;29;20503;-79
2021/12/06 09:14:45;;;;;;;15.63;10.60;;;;;;;11.22;57.43;93947.72;4877211;29;20446;-79
2021/12/06 09:17:11;;;;;;;13.97;10.10;;;;;;;11.33;56.18;93946.72;4881580;29;21101;-84
2021/12/06 09:19:36;;;;;;;13.75;10.27;;;;;;;11.64;55.71;93947.56;4889467;29;20427;-84
2021/12/06 09:22:03;;;;;;;13.80;9.80;;;;;;;11.93;54.74;93947.09;4890909;29;20412;-83
2021/12/06 09:24:28;;;;;;;14.30;10.60;;;;;;;12.13;54.72;93935.88;4890264;29;20419;-82
2021/12/06 09:27:01;;;;;;;11.73;9.20;;;;;;;12.17;53.68;93929.06;4879560;29;20820;-83
2021/12/06 09:29:26;;;;;;;16.63;10.38;;;;;;;12.31;53.95;93928.28;4871449;29;20438;-83
2021/12/06 09:31:53;;;;;;;12.90;9.40;;;;;;;12.31;52.61;93932.72;4881338;29;20037;-81
2021/12/06 09:34:18;;;;;;;;;;;;;;;12.08;53.88;93939.25;4890004;29;20060;-81
2021/12/06 09:36:43;;;;;;;;;;;;;;;11.88;54.31;93947.88;4890522;29;19920;-82
2021/12/06 09:39:09;;;;;;;12.67;8.27;;;;;;;11.89;54.31;93939.00;4899791;29;19987;-83
2021/12/06 09:41:35;;;;;;;13.23;7.18;;;;;;;11.88;54.17;93924.44;4884980;29;20025;-80
2021/12/06 09:44:01;;;;;;;9.57;7.13;;;;;;;11.79;53.85;93927.81;4891842;23;20132;-82
2021/12/06 09:46:28;;;;;;;;;;;;;;;11.80;54.15;93924.94;4893062;29;20076;-82
2021/12/06 09:48:53;;;;;;;;;;;;;;;11.73;53.87;93937.41;4888524;29;20102;-82
2021/12/06 09:51:21;;;;;;;;;;;;;;;11.52;54.11;93917.59;4893092;29;19919;-82
2021/12/06 09:53:53;;;;;;;;;;;;;;;11.54;54.21;93907.69;4891542;29;19923;-81
2021/12/06 09:56:20;;;;;;;;;;;;;;;11.58;54.41;93912.16;4915542;23;20094;-82
2021/12/06 09:58:49;;;;;;;;;;;;;;;11.47;54.39;93892.34;4926463;29;19930;-82
2021/12/06 10:01:25;;;;;;;;;;;;;;;11.45;54.94;93885.84;4931145;29;19919;-80
2021/12/06 10:03:52;;;;;;;;;;;;;;;11.45;54.57;93891.03;4935248;29;19950;-82
2021/12/06 10:06:18;;;;;;;8.85;6.80;;;;;;;11.56;54.48;93863.97;4913979;29;19974;-82
2021/12/06 10:08:45;;;;;;;16.08;8.15;;;;;;;11.60;54.18;93880.63;4910133;29;20035;-81
2021/12/06 10:11:11;;;;;;;15.68;10.77;;;;;;;11.46;55.12;93851.72;4927663;29;20419;-81
2021/12/06 10:13:37;;;;;;;19.73;12.70;;;;;;;11.48;55.52;93885.31;4916314;23;20455;-81
2021/12/06 10:16:03;;;;;;;22.23;14.60;;;;;;;11.37;55.79;93863.69;4898904;29;20406;-80
2021/12/06 10:18:29;;;;;;;;;;;;;;;11.19;56.05;93874.59;4882545;29;20410;-80
2021/12/06 10:20:54;;;;;;;;;;;;;;;11.19;56.29;93862.38;4881502;29;19976;-82
2021/12/06 10:23:19;;;;;;;12.23;9.57;;;;;;;11.16;56.17;93864.72;4900288;29;19923;-82
2021/12/06 10:25:49;;;;;;;15.63;10.15;;;;;;;11.07;56.41;93844.41;4901773;29;20060;-82
2021/12/06 10:28:14;;;;;;;;;;;;;;;11.28;56.48;93847.81;4886062;29;20100;-82
2021/12/06 10:30:50;;;;;;;;;;;;;;;11.32;56.81;93850.69;4883772;29;19926;-83
2021/12/06 10:33:19;;;;;;;;;;;;;;;11.23;57.13;93840.03;4901790;29;20311;-82
2021/12/06 10:35:49;;;;;;;;;;;;;;;11.04;58.24;93831.13;4901519;29;19971;-82
2021/12/06 10:38:28;;;;;;;;;;;;;;;11.16;58.25;93826.47;4901598;29;19919;-83
2021/12/06 10:40:57;;;;;;;;;;;;;;;11.28;58.04;93829.59;4908171;29;19927;-82
2021/12/06 10:43:23;;;;;;;;;;;;;;;11.34;57.77;93832.97;4945960;23;19931;-83
2021/12/06 10:45:48;;;;;;;;;;;;;;;11.31;57.84;93830.91;4899591;29;19923;-83
2021/12/06 10:48:13;;;;;;;;;;;;;;;11.24;58.21;93825.97;4899788;29;20120;-82
2021/12/06 10:50:58;;;;;;;;;;;;;;;11.28;58.53;93829.59;4899055;29;19926;-83
2021/12/06 10:53:40;;;;;;;;;;;;;;;11.16;58.94;93842.06;4884381;29;19920;-82
2021/12/06 10:56:25;;;;;;;;;;;;;;;11.09;58.54;93839.75;4900570;29;19959;-82
2021/12/06 10:58:51;;;;;;;;;;;;;;;11.01;59.12;93839.44;4900594;29;19962;-83
2021/12/06 11:01:17;;;;;;;;;;;;;;;11.08;58.76;93851.19;4900097;29;20467;-80
2021/12/06 11:03:47;;;;;;;;;;;;;;;11.13;58.77;93840.78;4891683;29;20376;-80
2021/12/06 11:06:19;;;;;;;;;;;;;;;11.19;58.97;93835.56;4891162;29;20383;-80
2021/12/06 11:08:44;;;;;;;;;;;;;;;11.27;58.45;93838.44;4886199;29;20416;-81
2021/12/06 11:11:11;;;;;;;;;;;;;;;11.37;58.47;93840.25;4879488;29;19988;-80
2021/12/06 11:13:37;;;;;;;;;;;;;;;11.45;59.00;93838.97;4891246;29;19923;-81
2021/12/06 11:16:04;;;;;;;;;;;;;;;11.48;58.42;93854.06;4899824;29;19924;-81
2021/12/06 11:18:42;;;;;;;;;;;;;;;11.53;58.57;93857.44;4902128;29;19920;-82
2021/12/06 11:21:34;;;;;;;;;;;;;;;11.53;58.45;93851.47;4897077;29;19971;-82
2021/12/06 11:24:28;;;;;;;;;;;;;;;11.54;57.56;93835.56;4897059;29;19936;-82
2021/12/06 11:26:54;;;;;;;;;;;;;;;11.55;57.50;93838.97;4875112;29;19986;-82
2021/12/06 11:29:23;;;;;;;;;;;;;;;11.46;58.13;93830.13;4901881;29;19929;-82
2021/12/06 11:31:53;;;;;;;;;;;;;;;11.32;58.61;93825.44;4902073;29;20010;-82
2021/12/06 11:34:18;;;;;;;;;;;;;;;11.44;58.30;93825.19;4902345;29;19923;-82
2021/12/06 11:36:44;;;;;;;;;;;;;;;11.56;58.17;93819.72;4899990;29;19965;-82
2021/12/06 11:39:14;;;;;;;;;;;;;;;11.66;57.68;93809.28;4898668;29;19927;-82
2021/12/06 11:41:42;;;;;;;;;;;;;;;11.71;57.39;93820.50;4900213;29;19915;-82
2021/12/06 11:44:25;;;;;;;;;;;;;;;11.75;57.31;93806.94;4905972;23;19935;-82
2021/12/06 11:46:54;;;;;;;;;;;;;;;11.60;58.62;93805.13;4902822;23;20006;-82
2021/12/06 11:49:20;;;;;;;;;;;;;;;11.71;58.35;93806.66;4914321;29;19930;-81
2021/12/06 11:51:46;;;;;;;;;;;;;;;11.77;57.79;93794.44;4894324;29;19927;-83
2021/12/06 11:54:11;;;;;;;;;;;;;;;11.68;57.59;93788.97;4912725;29;19926;-82
2021/12/06 11:56:42;;;;;;;;;;;;;;;11.73;58.04;93802.00;4912866;29;19991;-81
2021/12/06 11:59:16;;;;;;;;;;;;;;;11.70;57.26;93815.50;4970426;23;20006;-82